Time;durP1;ratioP1;P1;durP2;ratioP2;P2;SDS_P1;SDS_P2;PMS_P1;PMS_P2;Temp;Humidity;BMP_temperature;BMP_pressure;BME280_temperature;BME280_humidity;BME280_pressure;Samples;Min_cycle;Max_cycle;Signal;HPM_P1;HPM_P2
2022/02/28 00:05:00;;;;;;;4.38;1.35;;;4.80;99.90;;;;;;20659801;28;20592;-45
2022/02/28 00:15:03;;;;;;;6.22;1.90;;;4.80;99.90;;;;;;20669503;28;20049;-45
2022/02/28 00:25:07;;;;;;;3.88;1.38;;;4.80;99.90;;;;;;20671632;28;20046;-45
2022/02/28 00:35:08;;;;;;;5.90;1.05;;;4.80;99.90;;;;;;20668648;28;20587;-45
2022/02/28 00:45:10;;;;;;;2.90;1.20;;;4.70;99.90;;;;;;20672641;28;20041;-45
2022/02/28 00:55:12;;;;;;;5.60;2.45;;;4.70;99.90;;;;;;20669760;28;20042;-45
2022/02/28 01:05:16;;;;;;;4.25;1.15;;;4.60;99.90;;;;;;20659758;28;20041;-45
2022/02/28 01:15:20;;;;;;;5.05;1.63;;;4.50;99.90;;;;;;20662589;28;20033;-45
2022/02/28 01:25:22;;;;;;;4.18;1.30;;;4.50;99.90;;;;;;20660390;28;20394;-45
2022/02/28 01:35:23;;;;;;;4.68;1.33;;;4.30;99.90;;;;;;20663907;28;20521;-45
2022/02/28 01:45:24;;;;;;;4.82;1.65;;;4.20;99.90;;;;;;20666734;28;20083;-45
2022/02/28 01:55:26;;;;;;;2.92;1.17;;;4.10;99.90;;;;;;20669594;28;20046;-45
2022/02/28 02:05:27;;;;;;;6.40;1.00;;;4.00;99.90;;;;;;20673015;28;20050;-44
2022/02/28 02:15:30;;;;;;;4.72;1.45;;;4.00;99.90;;;;;;20666251;28;20034;-45
2022/02/28 02:25:32;;;;;;;2.75;0.95;;;3.90;99.90;;;;;;20665524;28;20201;-45
2022/02/28 02:35:33;;;;;;;4.40;1.33;;;3.80;99.90;;;;;;20665931;28;20238;-45
2022/02/28 02:45:34;;;;;;;4.78;1.42;;;3.80;99.90;;;;;;20659660;28;20046;-45
2022/02/28 02:55:36;;;;;;;4.25;1.58;;;3.60;99.90;;;;;;20655375;28;20038;-45
2022/02/28 03:05:37;;;;;;;4.32;1.40;;;3.60;99.90;;;;;;20648797;28;20057;-45
2022/02/28 03:15:38;;;;;;;2.65;1.10;;;3.40;99.90;;;;;;20653423;28;20256;-44
2022/02/28 03:25:40;;;;;;;3.15;1.40;;;3.40;99.90;;;;;;20650852;28;20453;-45
2022/02/28 03:35:41;;;;;;;2.80;1.33;;;3.30;99.90;;;;;;20647702;28;20049;-45
2022/02/28 03:45:42;;;;;;;5.28;2.00;;;3.20;99.90;;;;;;20656439;28;20038;-44
2022/02/28 03:55:43;;;;;;;6.18;1.05;;;3.10;99.90;;;;;;20646268;28;20418;-44
2022/02/28 04:05:44;;;;;;;4.15;1.50;;;3.00;99.90;;;;;;20651022;28;20054;-45
2022/02/28 04:15:45;;;;;;;3.22;1.55;;;3.00;99.90;;;;;;20640816;28;20034;-45
2022/02/28 04:25:46;;;;;;;4.97;1.45;;;2.90;99.90;;;;;;20651372;28;20046;-45
2022/02/28 04:35:48;;;;;;;3.72;1.45;;;2.80;99.90;;;;;;20646259;28;20414;-44
2022/02/28 04:45:49;;;;;;;4.72;1.35;;;2.80;99.90;;;;;;20655938;28;20053;-45
2022/02/28 04:55:51;;;;;;;2.75;1.25;;;2.80;99.90;;;;;;20660384;28;20046;-45
2022/02/28 05:06:10;;;;;;;2.88;0.82;;;2.70;99.90;;;;;;20652208;28;20503;-44
2022/02/28 05:16:11;;;;;;;5.40;1.92;;;2.70;99.90;;;;;;20650573;28;20688;-45
2022/02/28 05:26:12;;;;;;;2.85;0.93;;;2.60;99.90;;;;;;20648385;28;20525;-45
2022/02/28 05:36:13;;;;;;;1.67;0.80;;;2.50;99.90;;;;;;20659600;28;20050;-45
2022/02/28 05:46:15;;;;;;;4.18;1.30;;;2.50;99.90;;;;;;20655064;28;20120;-45
2022/02/28 05:56:16;;;;;;;5.63;1.20;;;2.40;99.90;;;;;;20650429;28;20046;-45
2022/02/28 07:14:02;;;;;;;4.65;1.63;;;2.00;99.90;;;;;;20645673;28;20061;-45
2022/02/28 07:35:01;;;;;;;4.22;1.58;;;2.20;99.90;;;;;;20675301;28;20061;-45
2022/02/28 07:45:04;;;;;;;4.90;1.45;;;2.40;99.90;;;;;;20677210;28;20069;-44
2022/02/28 07:55:05;;;;;;;5.05;1.58;;;2.60;99.90;;;;;;20671329;28;20045;-44
2022/02/28 08:05:07;;;;;;;3.85;1.25;;;2.90;99.90;;;;;;20687006;28;20057;-44
2022/02/28 08:15:10;;;;;;;3.50;1.13;;;3.40;99.90;;;;;;20672444;28;20729;-45
2022/02/28 08:25:11;;;;;;;3.72;1.30;;;3.70;99.90;;;;;;20646531;28;20545;-44
2022/02/28 08:35:12;;;;;;;3.05;1.38;;;4.10;99.90;;;;;;20670295;28;20046;-45
2022/02/28 08:45:13;;;;;;;5.15;1.90;;;4.50;99.90;;;;;;20656784;28;20568;-45
2022/02/28 08:55:15;;;;;;;5.10;1.55;;;4.60;99.90;;;;;;20677638;28;20364;-45
2022/02/28 09:05:16;;;;;;;3.55;1.73;;;4.90;99.90;;;;;;20646957;28;20647;-45
2022/02/28 09:15:17;;;;;;;4.75;1.67;;;5.30;99.90;;;;;;20657200;28;20053;-45
2022/02/28 09:25:20;;;;;;;4.45;2.08;;;5.70;99.90;;;;;;20672188;28;20233;-45
2022/02/28 09:35:22;;;;;;;4.88;2.28;;;5.90;99.90;;;;;;20654231;28;20599;-45
2022/02/28 09:45:23;;;;;;;4.28;1.45;;;6.20;99.90;;;;;;20655116;28;20065;-45
2022/02/28 09:55:24;;;;;;;6.00;2.17;;;6.40;99.90;;;;;;20650998;28;20038;-45
2022/02/28 10:05:26;;;;;;;4.95;1.58;;;6.60;99.90;;;;;;20657415;28;20053;-45
2022/02/28 10:15:27;;;;;;;5.32;1.80;;;6.90;99.90;;;;;;20667268;28;20054;-45
2022/02/28 10:25:33;;;;;;;3.85;1.58;;;7.30;99.90;;;;;;20673358;28;20406;-45
2022/02/28 10:36:01;;;;;;;4.07;1.70;;;7.50;99.90;;;;;;20678712;28;20049;-45
2022/02/28 10:46:15;;;;;;;7.65;2.42;;;8.00;99.90;;;;;;20671621;28;20049;-45
2022/02/28 10:56:16;;;;;;;10.13;2.80;;;8.10;99.90;;;;;;20657828;28;20037;-45
2022/02/28 11:06:26;;;;;;;4.20;1.95;;;8.60;99.90;;;;;;20675732;28;20065;-46
2022/02/28 11:16:29;;;;;;;8.50;2.83;;;8.90;99.90;;;;;;20648952;28;20049;-46
2022/02/28 11:26:31;;;;;;;5.78;2.60;;;9.30;99.90;;;;;;20670723;28;20042;-45
2022/02/28 11:36:50;;;;;;;5.75;1.55;;;10.00;99.90;;;;;;20671297;28;20501;-46
2022/02/28 11:47:04;;;;;;;5.25;2.10;;;10.80;99.40;;;;;;20666782;28;20510;-46
2022/02/28 11:57:05;;;;;;;3.20;1.75;;;11.30;98.10;;;;;;20658065;28;20501;-46
2022/02/28 12:07:23;;;;;;;6.93;2.55;;;11.10;99.40;;;;;;20645422;28;20505;-46
2022/02/28 12:17:40;;;;;;;5.10;2.05;;;11.60;98.30;;;;;;20668667;28;20402;-46
2022/02/28 12:27:47;;;;;;;7.25;2.15;;;12.20;96.80;;;;;;20614400;28;20058;-45
2022/02/28 12:37:48;;;;;;;;;;;11.90;98.10;;;;;;20641136;28;20045;-46
2022/02/28 12:47:50;;;;;;;5.35;2.10;;;12.10;98.30;;;;;;20635903;28;19930;-46
2022/02/28 12:57:51;;;;;;;5.22;2.75;;;12.40;96.50;;;;;;20574130;28;20465;-46
2022/02/28 13:08:01;;;;;;;5.60;2.13;;;13.00;96.70;;;;;;20626306;28;20061;-46
2022/02/28 13:18:06;;;;;;;8.10;2.38;;;13.10;95.80;;;;;;20638909;28;20061;-46
2022/02/28 13:28:07;;;;;;;4.80;2.10;;;13.60;95.10;;;;;;20648873;28;20058;-46
2022/02/28 13:38:08;;;;;;;7.32;2.28;;;13.20;93.20;;;;;;20656666;28;20038;-46
2022/02/28 13:48:21;;;;;;;7.35;2.75;;;12.20;94.40;;;;;;20648396;28;20073;-46
2022/02/28 13:58:27;;;;;;;5.47;2.25;;;13.10;93.10;;;;;;20644514;28;21381;-46
2022/02/28 14:08:29;;;;;;;6.47;2.97;;;13.20;92.20;;;;;;20646461;28;20370;-46
2022/02/28 14:18:30;;;;;;;8.68;2.30;;;13.30;92.60;;;;;;20652125;28;20026;-46
2022/02/28 14:28:40;;;;;;;9.23;2.83;;;12.40;93.80;;;;;;20650777;28;20049;-46
2022/02/28 14:38:41;;;;;;;6.63;2.40;;;11.70;95.20;;;;;;20654436;28;20049;-46
2022/02/28 14:48:43;;;;;;;4.93;1.98;;;12.60;95.60;;;;;;20648233;28;20050;-46
2022/02/28 14:58:47;;;;;;;6.78;2.65;;;13.40;94.00;;;;;;20658289;28;20323;-45
2022/02/28 15:08:49;;;;;;;5.88;2.58;;;12.10;92.70;;;;;;20668076;28;20042;-45
2022/02/28 15:18:50;;;;;;;6.25;2.70;;;11.70;92.90;;;;;;20629304;28;20045;-46
2022/02/28 15:28:51;;;;;;;6.03;2.50;;;11.60;95.20;;;;;;20640447;28;20041;-45
2022/02/28 15:38:52;;;;;;;6.93;2.97;;;11.60;95.80;;;;;;20654488;28;20034;-45
2022/02/28 15:48:53;;;;;;;4.43;1.88;;;11.40;96.10;;;;;;20659514;28;20046;-46
2022/02/28 15:58:55;;;;;;;5.80;2.67;;;11.10;94.20;;;;;;20667179;28;20045;-46
2022/02/28 16:09:00;;;;;;;7.32;2.42;;;10.70;93.70;;;;;;20661920;28;22558;-46
2022/02/28 16:19:02;;;;;;;6.65;2.50;;;10.50;96.10;;;;;;20664108;28;20042;-46
2022/02/28 16:29:04;;;;;;;5.95;2.72;;;10.30;95.90;;;;;;20657407;28;20054;-46
2022/02/28 16:39:06;;;;;;;6.47;2.83;;;10.00;96.30;;;;;;20667982;28;20508;-46
2022/02/28 16:49:07;;;;;;;11.70;3.10;;;10.00;96.50;;;;;;20663106;28;20501;-46
2022/02/28 16:59:08;;;;;;;6.47;3.00;;;9.80;97.80;;;;;;20659691;28;20034;-46
2022/02/28 17:09:09;;;;;;;7.45;3.08;;;9.60;98.30;;;;;;20644439;28;20310;-46
2022/02/28 17:19:10;;;;;;;12.20;3.63;;;9.40;99.40;;;;;;20685176;28;20037;-46
2022/02/28 17:29:11;;;;;;;8.02;3.42;;;9.30;99.90;;;;;;20672043;28;20498;-46
2022/02/28 17:39:13;;;;;;;8.55;2.85;;;9.10;99.90;;;;;;20678451;28;20049;-46
2022/02/28 17:49:15;;;;;;;11.55;5.53;;;9.00;99.90;;;;;;20664746;28;20445;-46
2022/02/28 17:59:17;;;;;;;10.30;3.33;;;8.80;99.90;;;;;;20677947;28;20046;-45
2022/02/28 18:09:18;;;;;;;8.52;3.80;;;8.70;99.90;;;;;;20666953;28;20057;-46
2022/02/28 18:19:19;;;;;;;6.45;3.15;;;8.50;99.90;;;;;;20662526;28;20038;-46
2022/02/28 18:29:20;;;;;;;8.15;3.55;;;8.40;99.90;;;;;;20673832;28;20524;-46
2022/02/28 18:39:22;;;;;;;6.97;3.40;;;8.20;99.90;;;;;;20682034;28;20429;-46
2022/02/28 18:49:23;;;;;;;7.93;3.53;;;8.10;99.90;;;;;;20691732;28;20038;-46
2022/02/28 18:59:24;;;;;;;10.63;3.88;;;8.00;99.90;;;;;;20675610;28;20053;-46
2022/02/28 19:09:27;;;;;;;8.38;3.88;;;7.90;99.90;;;;;;20673157;28;20188;-46
2022/02/28 19:19:29;;;;;;;9.77;4.10;;;7.80;99.90;;;;;;20690106;28;20501;-46
2022/02/28 19:29:30;;;;;;;6.57;3.28;;;7.70;99.90;;;;;;20676946;28;20042;-46
2022/02/28 19:39:33;;;;;;;10.38;3.58;;;7.60;99.90;;;;;;20674684;28;20038;-46
2022/02/28 19:49:34;;;;;;;11.85;3.47;;;7.60;99.90;;;;;;20680175;28;20413;-46
2022/02/28 19:59:35;;;;;;;14.32;5.00;;;7.50;99.90;;;;;;20675838;28;20046;-46
2022/02/28 20:09:37;;;;;;;11.18;4.28;;;7.40;99.90;;;;;;20676372;28;20160;-46
2022/02/28 20:19:38;;;;;;;8.55;4.18;;;7.30;99.90;;;;;;20671898;28;20038;-46
2022/02/28 20:29:39;;;;;;;7.75;3.90;;;7.20;99.90;;;;;;20670929;28;20050;-46
2022/02/28 20:39:40;;;;;;;10.90;4.32;;;7.10;99.90;;;;;;20665359;28;20038;-46
2022/02/28 20:49:41;;;;;;;10.88;3.80;;;7.00;99.90;;;;;;20665231;28;20528;-45
2022/02/28 20:59:42;;;;;;;11.45;4.05;;;6.80;99.90;;;;;;20663735;28;20042;-45
2022/02/28 21:09:43;;;;;;;10.35;4.03;;;6.70;99.90;;;;;;20651014;28;20050;-46
2022/02/28 21:19:45;;;;;;;9.82;3.67;;;6.40;99.90;;;;;;20657291;28;20046;-45
2022/02/28 21:29:46;;;;;;;8.50;3.58;;;6.10;99.90;;;;;;20652984;28;20053;-45
2022/02/28 21:39:47;;;;;;;12.20;4.00;;;5.90;99.90;;;;;;20653170;28;20042;-46
2022/02/28 21:49:48;;;;;;;11.57;4.32;;;5.90;99.90;;;;;;20642698;28;20338;-46
2022/02/28 21:59:50;;;;;;;9.93;3.42;;;6.00;99.90;;;;;;20643778;28;20045;-46
2022/02/28 22:09:51;;;;;;;7.75;3.30;;;6.10;99.90;;;;;;20657780;28;20061;-46
2022/02/28 22:19:52;;;;;;;11.40;4.88;;;6.10;99.90;;;;;;20654115;28;20037;-46
2022/02/28 22:29:54;;;;;;;9.20;3.67;;;6.10;99.90;;;;;;20676541;28;20074;-45
2022/02/28 22:40:01;;;;;;;13.30;4.53;;;6.10;99.90;;;;;;20650186;28;20038;-46
2022/02/28 22:50:08;;;;;;;7.73;3.37;;;5.90;99.90;;;;;;20648495;28;20057;-46
2022/02/28 23:00:14;;;;;;;;;;;5.80;99.90;;;;;;20671138;28;20038;-46
2022/02/28 23:20:35;;;;;;;10.25;4.65;;;5.60;99.90;;;;;;20663850;28;20367;-46
2022/02/28 23:30:37;;;;;;;9.00;3.47;;;5.50;99.90;;;;;;20649900;28;20454;-46
2022/02/28 23:40:38;;;;;;;9.27;3.40;;;5.60;99.90;;;;;;20657545;28;20043;-46
2022/02/28 23:50:39;;;;;;;12.05;4.45;;;5.60;99.90;;;;;;20657970;28;20062;-46
